sensor_id;sensor_type;location;lat;lon;timestamp;pressure;altitude;pressure_sealevel;temperature;humidity
71889;BME280;59762;49.998;14.858;2023-03-13T00:00:17;96890.44;;;5.15;100.00
71889;BME280;59762;49.998;14.858;2023-03-13T00:03:02;96887.81;;;5.25;100.00
71889;BME280;59762;49.998;14.858;2023-03-13T00:05:28;96893.41;;;5.31;100.00
71889;BME280;59762;49.998;14.858;2023-03-13T00:07:54;96902.88;;;5.43;100.00
71889;BME280;59762;49.998;14.858;2023-03-13T00:10:19;96899.38;;;5.43;100.00
71889;BME280;59762;49.998;14.858;2023-03-13T00:12:45;96896.59;;;5.44;100.00
71889;BME280;59762;49.998;14.858;2023-03-13T00:15:11;96906.94;;;5.47;100.00
71889;BME280;59762;49.998;14.858;2023-03-13T00:17:36;96905.81;;;5.50;100.00
71889;BME280;59762;49.998;14.858;2023-03-13T00:20:02;96908.03;;;5.54;100.00
71889;BME280;59762;49.998;14.858;2023-03-13T00:22:28;96900.34;;;5.61;100.00
71889;BME280;59762;49.998;14.858;2023-03-13T00:24:54;96898.81;;;5.58;100.00
71889;BME280;59762;49.998;14.858;2023-03-13T00:27:19;96898.25;;;5.64;100.00
71889;BME280;59762;49.998;14.858;2023-03-13T00:29:45;96879.44;;;5.67;100.00
71889;BME280;59762;49.998;14.858;2023-03-13T00:32:11;96881.09;;;5.68;100.00
71889;BME280;59762;49.998;14.858;2023-03-13T00:34:36;96893.09;;;5.72;100.00
71889;BME280;59762;49.998;14.858;2023-03-13T00:37:02;96882.22;;;5.66;100.00
71889;BME280;59762;49.998;14.858;2023-03-13T00:39:28;96880.25;;;5.77;100.00
71889;BME280;59762;49.998;14.858;2023-03-13T00:41:53;96884.31;;;5.81;100.00
71889;BME280;59762;49.998;14.858;2023-03-13T00:44:19;96878.88;;;5.83;100.00
71889;BME280;59762;49.998;14.858;2023-03-13T00:46:44;96881.66;;;5.91;100.00
71889;BME280;59762;49.998;14.858;2023-03-13T00:49:10;96883.31;;;5.92;100.00
71889;BME280;59762;49.998;14.858;2023-03-13T00:51:36;96876.22;;;5.92;100.00
71889;BME280;59762;49.998;14.858;2023-03-13T00:54:02;96877.22;;;5.91;100.00
71889;BME280;59762;49.998;14.858;2023-03-13T00:56:29;96880.00;;;5.99;100.00
71889;BME280;59762;49.998;14.858;2023-03-13T00:58:54;96873.84;;;5.89;100.00
71889;BME280;59762;49.998;14.858;2023-03-13T01:01:23;96876.91;;;5.94;100.00
71889;BME280;59762;49.998;14.858;2023-03-13T01:03:51;96872.59;;;5.93;100.00
71889;BME280;59762;49.998;14.858;2023-03-13T01:06:20;96875.38;;;5.92;100.00
71889;BME280;59762;49.998;14.858;2023-03-13T01:08:47;96879.47;;;5.86;100.00
71889;BME280;59762;49.998;14.858;2023-03-13T01:11:16;96875.13;;;5.85;100.00
71889;BME280;59762;49.998;14.858;2023-03-13T01:13:42;96875.13;;;5.85;100.00
71889;BME280;59762;49.998;14.858;2023-03-13T01:16:13;96876.09;;;5.84;100.00
71889;BME280;59762;49.998;14.858;2023-03-13T01:18:45;96879.47;;;5.86;100.00
71889;BME280;59762;49.998;14.858;2023-03-13T01:21:12;96872.16;;;5.79;100.00
71889;BME280;59762;49.998;14.858;2023-03-13T01:23:38;96875.66;;;5.79;100.00
71889;BME280;59762;49.998;14.858;2023-03-13T01:26:05;96871.91;;;5.82;100.00
71889;BME280;59762;49.998;14.858;2023-03-13T01:28:32;96880.13;;;5.88;100.00
71889;BME280;59762;49.998;14.858;2023-03-13T01:30:58;96873.19;;;5.87;100.00
71889;BME280;59762;49.998;14.858;2023-03-13T01:33:24;96892.25;;;5.91;100.00
71889;BME280;59762;49.998;14.858;2023-03-13T01:35:50;96884.19;;;5.92;100.00
71889;BME280;59762;49.998;14.858;2023-03-13T01:38:16;96885.03;;;5.93;100.00
71889;BME280;59762;49.998;14.858;2023-03-13T01:40:44;96868.97;;;5.94;100.00
71889;BME280;59762;49.998;14.858;2023-03-13T01:43:20;96867.16;;;5.95;100.00
71889;BME280;59762;49.998;14.858;2023-03-13T01:46:01;96868.97;;;5.94;100.00
71889;BME280;59762;49.998;14.858;2023-03-13T01:48:38;96871.88;;;6.01;100.00
71889;BME280;59762;49.998;14.858;2023-03-13T01:51:09;96867.13;;;6.04;100.00
71889;BME280;59762;49.998;14.858;2023-03-13T01:53:39;96854.84;;;6.03;100.00
71889;BME280;59762;49.998;14.858;2023-03-13T01:56:10;96852.06;;;6.05;100.00
71889;BME280;59762;49.998;14.858;2023-03-13T01:58:38;96863.47;;;6.15;100.00
71889;BME280;59762;49.998;14.858;2023-03-13T02:01:04;96861.97;;;6.12;100.00
71889;BME280;59762;49.998;14.858;2023-03-13T02:03:32;96860.56;;;6.08;100.00
71889;BME280;59762;49.998;14.858;2023-03-13T02:05:58;96853.56;;;6.07;100.00
71889;BME280;59762;49.998;14.858;2023-03-13T02:08:35;96863.91;;;6.10;100.00
71889;BME280;59762;49.998;14.858;2023-03-13T02:11:12;96844.69;;;5.99;100.00
71889;BME280;59762;49.998;14.858;2023-03-13T02:13:41;96840.06;;;6.01;100.00
71889;BME280;59762;49.998;14.858;2023-03-13T02:16:07;96846.63;;;6.06;100.00
71889;BME280;59762;49.998;14.858;2023-03-13T02:18:35;96842.19;;;5.97;100.00
71889;BME280;59762;49.998;14.858;2023-03-13T02:21:09;96847.22;;;5.91;100.00
71889;BME280;59762;49.998;14.858;2023-03-13T02:23:53;96844.72;;;5.80;100.00
71889;BME280;59762;49.998;14.858;2023-03-13T02:26:20;96847.09;;;5.73;100.00
71889;BME280;59762;49.998;14.858;2023-03-13T02:28:46;96853.66;;;5.60;100.00
71889;BME280;59762;49.998;14.858;2023-03-13T02:31:12;96852.53;;;5.53;100.00
71889;BME280;59762;49.998;14.858;2023-03-13T02:33:40;96848.25;;;5.52;100.00
71889;BME280;59762;49.998;14.858;2023-03-13T02:36:07;96849.09;;;5.52;100.00
71889;BME280;59762;49.998;14.858;2023-03-13T02:38:37;96846.56;;;5.51;100.00
71889;BME280;59762;49.998;14.858;2023-03-13T02:41:05;96858.16;;;5.50;100.00
71889;BME280;59762;49.998;14.858;2023-03-13T02:43:33;96854.78;;;5.57;100.00
71889;BME280;59762;49.998;14.858;2023-03-13T02:46:00;96853.41;;;5.63;100.00
71889;BME280;59762;49.998;14.858;2023-03-13T02:48:53;96851.28;;;5.66;100.00
71889;BME280;59762;49.998;14.858;2023-03-13T02:51:39;96854.06;;;5.65;100.00
71889;BME280;59762;49.998;14.858;2023-03-13T02:54:13;96853.22;;;5.74;100.00
71889;BME280;59762;49.998;14.858;2023-03-13T02:56:42;96855.72;;;5.66;100.00
71889;BME280;59762;49.998;14.858;2023-03-13T02:59:10;96851.97;;;5.68;100.00
71889;BME280;59762;49.998;14.858;2023-03-13T03:01:35;96849.88;;;5.81;100.00
71889;BME280;59762;49.998;14.858;2023-03-13T03:04:01;96848.22;;;5.80;100.00
71889;BME280;59762;49.998;14.858;2023-03-13T03:06:26;96850.16;;;5.78;100.00
71889;BME280;59762;49.998;14.858;2023-03-13T03:08:52;96833.16;;;5.81;100.00
71889;BME280;59762;49.998;14.858;2023-03-13T03:11:18;96847.38;;;5.80;100.00
71889;BME280;59762;49.998;14.858;2023-03-13T03:13:43;96849.88;;;5.81;100.00
71889;BME280;59762;49.998;14.858;2023-03-13T03:16:11;96850.88;;;5.80;100.00
71889;BME280;59762;49.998;14.858;2023-03-13T03:18:37;96846.97;;;5.84;100.00
71889;BME280;59762;49.998;14.858;2023-03-13T03:21:04;96851.28;;;5.85;100.00
71889;BME280;59762;49.998;14.858;2023-03-13T03:23:32;96845.97;;;5.85;100.00
71889;BME280;59762;49.998;14.858;2023-03-13T03:25:58;96848.06;;;5.91;100.00
71889;BME280;59762;49.998;14.858;2023-03-13T03:28:24;96840.25;;;5.90;100.00
71889;BME280;59762;49.998;14.858;2023-03-13T03:30:50;96840.78;;;5.93;100.00
71889;BME280;59762;49.998;14.858;2023-03-13T03:33:17;96831.03;;;5.94;100.00
71889;BME280;59762;49.998;14.858;2023-03-13T03:35:43;96830.66;;;5.89;100.00
71889;BME280;59762;49.998;14.858;2023-03-13T03:38:09;96838.28;;;5.92;100.00
71889;BME280;59762;49.998;14.858;2023-03-13T03:40:34;96826.88;;;5.82;100.00
71889;BME280;59762;49.998;14.858;2023-03-13T03:43:00;96831.19;;;5.83;100.00
71889;BME280;59762;49.998;14.858;2023-03-13T03:45:26;96827.56;;;5.84;100.00
71889;BME280;59762;49.998;14.858;2023-03-13T03:47:52;96823.38;;;5.81;100.00
71889;BME280;59762;49.998;14.858;2023-03-13T03:50:17;96826.88;;;5.82;100.00
71889;BME280;59762;49.998;14.858;2023-03-13T03:52:43;96824.91;;;5.84;100.00
71889;BME280;59762;49.998;14.858;2023-03-13T03:55:09;96824.63;;;5.77;100.00
71889;BME280;59762;49.998;14.858;2023-03-13T03:57:35;96822.44;;;5.82;100.00
71889;BME280;59762;49.998;14.858;2023-03-13T04:00:00;96818.66;;;5.75;100.00
71889;BME280;59762;49.998;14.858;2023-03-13T04:02:26;96815.59;;;5.80;100.00
71889;BME280;59762;49.998;14.858;2023-03-13T04:04:51;96804.97;;;5.80;100.00
71889;BME280;59762;49.998;14.858;2023-03-13T04:07:17;96805.28;;;5.86;100.00
71889;BME280;59762;49.998;14.858;2023-03-13T04:09:43;96816.84;;;5.85;100.00
71889;BME280;59762;49.998;14.858;2023-03-13T04:12:09;96806.38;;;5.84;100.00
71889;BME280;59762;49.998;14.858;2023-03-13T04:14:34;96812.50;;;5.84;100.00
71889;BME280;59762;49.998;14.858;2023-03-13T04:17:00;96800.41;;;5.82;100.00
71889;BME280;59762;49.998;14.858;2023-03-13T04:19:25;96808.34;;;5.82;100.00
71889;BME280;59762;49.998;14.858;2023-03-13T04:21:51;96799.38;;;5.92;100.00
71889;BME280;59762;49.998;14.858;2023-03-13T04:24:16;96799.13;;;5.95;100.00
71889;BME280;59762;49.998;14.858;2023-03-13T04:26:42;96802.03;;;5.92;100.00
71889;BME280;59762;49.998;14.858;2023-03-13T04:29:08;96795.47;;;5.96;100.00
71889;BME280;59762;49.998;14.858;2023-03-13T04:31:33;96791.69;;;5.99;100.00
71889;BME280;59762;49.998;14.858;2023-03-13T04:33:59;96790.03;;;5.98;100.00
71889;BME280;59762;49.998;14.858;2023-03-13T04:36:25;96788.69;;;6.11;100.00
71889;BME280;59762;49.998;14.858;2023-03-13T04:38:50;96777.97;;;6.13;100.00
71889;BME280;59762;49.998;14.858;2023-03-13T04:41:16;96783.41;;;6.11;100.00
71889;BME280;59762;49.998;14.858;2023-03-13T04:43:42;96786.75;;;6.13;100.00
71889;BME280;59762;49.998;14.858;2023-03-13T04:46:07;96786.16;;;6.19;100.00
71889;BME280;59762;49.998;14.858;2023-03-13T04:48:33;96782.53;;;6.20;100.00
71889;BME280;59762;49.998;14.858;2023-03-13T04:50:59;96779.47;;;6.15;100.00
71889;BME280;59762;49.998;14.858;2023-03-13T04:53:24;96777.66;;;6.25;100.00
71889;BME280;59762;49.998;14.858;2023-03-13T04:55:50;96778.91;;;6.21;100.00
71889;BME280;59762;49.998;14.858;2023-03-13T04:58:15;96769.13;;;6.22;100.00
71889;BME280;59762;49.998;14.858;2023-03-13T05:00:41;96768.13;;;6.23;100.00
71889;BME280;59762;49.998;14.858;2023-03-13T05:03:07;96761.03;;;6.23;100.00
71889;BME280;59762;49.998;14.858;2023-03-13T05:05:33;96755.97;;;6.30;98.80
71889;BME280;59762;49.998;14.858;2023-03-13T05:07:59;96745.81;;;6.25;99.93
71889;BME280;59762;49.998;14.858;2023-03-13T05:10:25;96747.72;;;6.33;97.68
71889;BME280;59762;49.998;14.858;2023-03-13T05:12:51;96741.59;;;6.32;98.07
71889;BME280;59762;49.998;14.858;2023-03-13T05:15:17;96740.59;;;6.33;97.73
71889;BME280;59762;49.998;14.858;2023-03-13T05:17:42;96746.22;;;6.30;97.85
71889;BME280;59762;49.998;14.858;2023-03-13T05:20:09;96749.28;;;6.26;98.63
71889;BME280;59762;49.998;14.858;2023-03-13T05:22:36;96746.66;;;6.26;98.72
71889;BME280;59762;49.998;14.858;2023-03-13T05:25:03;96735.06;;;6.27;98.26
71889;BME280;59762;49.998;14.858;2023-03-13T05:27:30;96743.00;;;6.27;98.48
71889;BME280;59762;49.998;14.858;2023-03-13T05:29:56;96734.38;;;6.25;97.90
71889;BME280;59762;49.998;14.858;2023-03-13T05:32:21;96737.31;;;6.22;99.09
71889;BME280;59762;49.998;14.858;2023-03-13T05:34:47;96738.31;;;6.21;99.27
71889;BME280;59762;49.998;14.858;2023-03-13T05:37:12;96734.91;;;6.28;97.18
71889;BME280;59762;49.998;14.858;2023-03-13T05:39:38;96733.91;;;6.29;98.06
71889;BME280;59762;49.998;14.858;2023-03-13T05:42:04;96738.50;;;6.37;95.81
71889;BME280;59762;49.998;14.858;2023-03-13T05:44:30;96734.34;;;6.34;96.81
71889;BME280;59762;49.998;14.858;2023-03-13T05:46:55;96730.41;;;6.38;95.72
71889;BME280;59762;49.998;14.858;2023-03-13T05:49:21;96725.09;;;6.38;95.51
71889;BME280;59762;49.998;14.858;2023-03-13T05:51:46;96719.63;;;6.40;95.65
71889;BME280;59762;49.998;14.858;2023-03-13T05:54:12;96716.97;;;6.40;95.71
71889;BME280;59762;49.998;14.858;2023-03-13T05:56:38;96709.44;;;6.45;94.42
71889;BME280;59762;49.998;14.858;2023-03-13T05:59:04;96701.91;;;6.40;95.94
71889;BME280;59762;49.998;14.858;2023-03-13T06:01:29;96699.34;;;6.48;93.61
71889;BME280;59762;49.998;14.858;2023-03-13T06:03:55;96699.19;;;6.50;93.97
71889;BME280;59762;49.998;14.858;2023-03-13T06:06:20;96694.03;;;6.48;93.78
71889;BME280;59762;49.998;14.858;2023-03-13T06:08:46;96701.28;;;6.46;94.54
71889;BME280;59762;49.998;14.858;2023-03-13T06:11:12;96698.13;;;6.43;94.37
71889;BME280;59762;49.998;14.858;2023-03-13T06:13:37;96689.78;;;6.38;96.02
71889;BME280;59762;49.998;14.858;2023-03-13T06:16:03;96696.47;;;6.42;94.98
71889;BME280;59762;49.998;14.858;2023-03-13T06:18:29;96685.25;;;6.48;93.26
71889;BME280;59762;49.998;14.858;2023-03-13T06:20:57;96671.97;;;6.48;93.69
71889;BME280;59762;49.998;14.858;2023-03-13T06:23:23;96673.34;;;6.52;93.25
71889;BME280;59762;49.998;14.858;2023-03-13T06:25:48;96683.66;;;6.55;91.89
71889;BME280;59762;49.998;14.858;2023-03-13T06:28:15;96681.91;;;6.63;91.09
71889;BME280;59762;49.998;14.858;2023-03-13T06:30:40;96674.03;;;6.71;90.03
71889;BME280;59762;49.998;14.858;2023-03-13T06:33:06;96668.88;;;6.70;90.29
71889;BME280;59762;49.998;14.858;2023-03-13T06:35:32;96655.38;;;6.63;90.62
71889;BME280;59762;49.998;14.858;2023-03-13T06:37:58;96657.38;;;6.61;90.57
71889;BME280;59762;49.998;14.858;2023-03-13T06:40:23;96670.16;;;6.66;90.26
71889;BME280;59762;49.998;14.858;2023-03-13T06:42:49;96663.88;;;6.67;90.14
71889;BME280;59762;49.998;14.858;2023-03-13T06:45:15;96665.06;;;6.72;88.83
71889;BME280;59762;49.998;14.858;2023-03-13T06:47:41;96664.25;;;6.72;88.89
71889;BME280;59762;49.998;14.858;2023-03-13T06:50:06;96663.25;;;6.73;88.81
71889;BME280;59762;49.998;14.858;2023-03-13T06:52:32;96671.31;;;6.81;88.02
71889;BME280;59762;49.998;14.858;2023-03-13T06:54:58;96661.97;;;6.77;88.98
71889;BME280;59762;49.998;14.858;2023-03-13T06:57:23;96665.47;;;6.77;88.19
71889;BME280;59762;49.998;14.858;2023-03-13T06:59:49;96650.50;;;6.76;88.28
71889;BME280;59762;49.998;14.858;2023-03-13T07:02:15;96638.41;;;6.74;89.32
71889;BME280;59762;49.998;14.858;2023-03-13T07:04:40;96641.59;;;6.77;88.92
71889;BME280;59762;49.998;14.858;2023-03-13T07:07:06;96648.94;;;6.83;88.21
71889;BME280;59762;49.998;14.858;2023-03-13T07:09:32;96642.03;;;6.90;87.47
71889;BME280;59762;49.998;14.858;2023-03-13T07:11:57;96644.56;;;7.00;86.56
71889;BME280;59762;49.998;14.858;2023-03-13T07:14:24;96637.25;;;7.19;85.70
71889;BME280;59762;49.998;14.858;2023-03-13T07:16:50;96633.50;;;7.30;84.50
71889;BME280;59762;49.998;14.858;2023-03-13T07:19:15;96638.59;;;7.49;83.24
71889;BME280;59762;49.998;14.858;2023-03-13T07:21:41;96637.75;;;7.48;83.18
71889;BME280;59762;49.998;14.858;2023-03-13T07:24:08;96640.31;;;7.58;82.85
71889;BME280;59762;49.998;14.858;2023-03-13T07:26:34;96634.28;;;7.56;83.02
71889;BME280;59762;49.998;14.858;2023-03-13T07:28:59;96631.69;;;7.64;82.44
71889;BME280;59762;49.998;14.858;2023-03-13T07:31:25;96637.66;;;7.66;81.71
71889;BME280;59762;49.998;14.858;2023-03-13T07:33:52;96634.03;;;7.75;81.89
71889;BME280;59762;49.998;14.858;2023-03-13T07:36:21;96635.19;;;7.72;81.66
71889;BME280;59762;49.998;14.858;2023-03-13T07:38:48;96630.06;;;7.79;81.29
71889;BME280;59762;49.998;14.858;2023-03-13T07:41:14;96630.59;;;7.82;81.74
71889;BME280;59762;49.998;14.858;2023-03-13T07:43:40;96626.28;;;7.89;80.98
71889;BME280;59762;49.998;14.858;2023-03-13T07:46:07;96618.31;;;7.89;81.16
71889;BME280;59762;49.998;14.858;2023-03-13T07:48:35;96627.97;;;7.98;80.63
71889;BME280;59762;49.998;14.858;2023-03-13T07:51:07;96614.41;;;8.09;80.09
71889;BME280;59762;49.998;14.858;2023-03-13T07:53:34;96614.97;;;8.29;79.68
71889;BME280;59762;49.998;14.858;2023-03-13T07:56:05;96603.53;;;8.45;78.14
71889;BME280;59762;49.998;14.858;2023-03-13T07:58:33;96600.72;;;8.46;78.64
71889;BME280;59762;49.998;14.858;2023-03-13T08:00:59;96607.19;;;8.36;79.11
71889;BME280;59762;49.998;14.858;2023-03-13T08:03:25;96607.19;;;8.44;79.16
71889;BME280;59762;49.998;14.858;2023-03-13T08:05:59;96606.50;;;8.26;81.53
71889;BME280;59762;49.998;14.858;2023-03-13T08:08:25;96596.47;;;8.19;82.85
71889;BME280;59762;49.998;14.858;2023-03-13T08:10:51;96599.94;;;8.04;85.28
71889;BME280;59762;49.998;14.858;2023-03-13T08:13:16;96590.97;;;7.97;86.72
71889;BME280;59762;49.998;14.858;2023-03-13T08:15:42;96583.78;;;7.97;87.01
71889;BME280;59762;49.998;14.858;2023-03-13T08:18:07;96569.88;;;8.03;88.13
71889;BME280;59762;49.998;14.858;2023-03-13T08:20:33;96556.09;;;8.16;87.75
71889;BME280;59762;49.998;14.858;2023-03-13T08:22:59;96567.38;;;8.18;86.82
71889;BME280;59762;49.998;14.858;2023-03-13T08:25:24;96560.09;;;8.20;86.44
71889;BME280;59762;49.998;14.858;2023-03-13T08:27:50;96556.47;;;8.29;86.72
71889;BME280;59762;49.998;14.858;2023-03-13T08:30:19;96552.81;;;8.30;86.14
71889;BME280;59762;49.998;14.858;2023-03-13T08:32:46;96550.81;;;8.40;85.81
71889;BME280;59762;49.998;14.858;2023-03-13T08:35:12;96545.34;;;8.50;85.94
71889;BME280;59762;49.998;14.858;2023-03-13T08:37:37;96541.50;;;8.60;85.77
71889;BME280;59762;49.998;14.858;2023-03-13T08:40:03;96543.84;;;8.71;84.64
71889;BME280;59762;49.998;14.858;2023-03-13T08:42:35;96533.34;;;8.78;83.95
71889;BME280;59762;49.998;14.858;2023-03-13T08:45:01;96528.69;;;8.72;83.19
71889;BME280;59762;49.998;14.858;2023-03-13T08:47:26;96526.72;;;8.74;83.23
71889;BME280;59762;49.998;14.858;2023-03-13T08:49:52;96527.69;;;8.81;82.70
71889;BME280;59762;49.998;14.858;2023-03-13T08:52:19;96517.50;;;8.92;82.57
71889;BME280;59762;49.998;14.858;2023-03-13T08:54:47;96512.53;;;8.89;83.22
71889;BME280;59762;49.998;14.858;2023-03-13T08:57:12;96504.69;;;8.96;82.66
71889;BME280;59762;49.998;14.858;2023-03-13T08:59:38;96493.69;;;8.99;83.67
71889;BME280;59762;49.998;14.858;2023-03-13T09:02:04;96489.88;;;9.01;83.22
71889;BME280;59762;49.998;14.858;2023-03-13T09:04:30;96500.34;;;9.03;83.21
71889;BME280;59762;49.998;14.858;2023-03-13T09:06:55;96499.69;;;9.01;81.91
71889;BME280;59762;49.998;14.858;2023-03-13T09:09:21;96494.38;;;9.01;82.48
71889;BME280;59762;49.998;14.858;2023-03-13T09:11:46;96493.84;;;9.05;82.25
71889;BME280;59762;49.998;14.858;2023-03-13T09:14:12;96489.31;;;9.22;81.31
71889;BME280;59762;49.998;14.858;2023-03-13T09:16:38;96482.63;;;9.26;80.87
71889;BME280;59762;49.998;14.858;2023-03-13T09:19:03;96469.44;;;9.40;80.15
71889;BME280;59762;49.998;14.858;2023-03-13T09:21:31;96473.16;;;9.54;79.36
71889;BME280;59762;49.998;14.858;2023-03-13T09:23:58;96462.72;;;9.44;78.82
71889;BME280;59762;49.998;14.858;2023-03-13T09:26:25;96466.06;;;9.46;79.17
71889;BME280;59762;49.998;14.858;2023-03-13T09:28:52;96466.28;;;9.67;77.78
71889;BME280;59762;49.998;14.858;2023-03-13T09:31:24;96468.28;;;9.65;77.91
71889;BME280;59762;49.998;14.858;2023-03-13T09:33:51;96460.41;;;9.72;77.36
71889;BME280;59762;49.998;14.858;2023-03-13T09:36:17;96467.66;;;9.55;79.59
71889;BME280;59762;49.998;14.858;2023-03-13T09:38:44;96462.16;;;9.57;80.37
71889;BME280;59762;49.998;14.858;2023-03-13T09:43:52;96480.16;;;9.55;79.86
71889;BME280;59762;49.998;14.858;2023-03-13T09:46:26;96487.94;;;9.64;79.21
71889;BME280;59762;49.998;14.858;2023-03-13T09:48:59;96486.31;;;9.55;79.29
71889;BME280;59762;49.998;14.858;2023-03-13T09:51:37;96489.69;;;9.49;80.02
71889;BME280;59762;49.998;14.858;2023-03-13T09:54:11;96486.34;;;9.47;79.03
71889;BME280;59762;49.998;14.858;2023-03-13T09:56:49;96484.88;;;9.45;78.29
71889;BME280;59762;49.998;14.858;2023-03-13T10:02:03;96472.78;;;9.65;76.93
71889;BME280;59762;49.998;14.858;2023-03-13T10:04:38;96470.25;;;9.94;75.72
71889;BME280;59762;49.998;14.858;2023-03-13T10:07:09;96473.13;;;10.15;74.79
71889;BME280;59762;49.998;14.858;2023-03-13T10:09:36;96457.38;;;10.28;73.76
71889;BME280;59762;49.998;14.858;2023-03-13T10:12:17;96468.25;;;10.41;73.34
71889;BME280;59762;49.998;14.858;2023-03-13T10:15:04;96470.72;;;10.65;72.34
71889;BME280;59762;49.998;14.858;2023-03-13T10:17:33;96457.28;;;10.58;72.36
71889;BME280;59762;49.998;14.858;2023-03-13T10:20:22;96456.72;;;10.63;71.91
71889;BME280;59762;49.998;14.858;2023-03-13T10:22:50;96456.56;;;10.93;70.54
71889;BME280;59762;49.998;14.858;2023-03-13T10:27:49;96443.28;;;11.29;69.42
71889;BME280;59762;49.998;14.858;2023-03-13T10:33:20;96442.44;;;11.43;68.39
71889;BME280;59762;49.998;14.858;2023-03-13T10:35:44;96453.09;;;11.72;66.99
71889;BME280;59762;49.998;14.858;2023-03-13T10:38:14;96438.59;;;11.81;66.96
71889;BME280;59762;49.998;14.858;2023-03-13T10:40:42;96442.31;;;11.65;67.58
71889;BME280;59762;49.998;14.858;2023-03-13T10:43:20;96443.44;;;11.71;67.51
71889;BME280;59762;49.998;14.858;2023-03-13T10:45:46;96435.72;;;11.47;68.42
71889;BME280;59762;49.998;14.858;2023-03-13T10:48:19;96438.19;;;11.63;67.52
71889;BME280;59762;49.998;14.858;2023-03-13T10:50:49;96438.56;;;11.45;68.06
71889;BME280;59762;49.998;14.858;2023-03-13T10:55:44;96439.13;;;11.41;69.04
71889;BME280;59762;49.998;14.858;2023-03-13T10:58:17;96426.06;;;11.31;69.37
71889;BME280;59762;49.998;14.858;2023-03-13T11:00:43;96414.59;;;11.66;68.81
71889;BME280;59762;49.998;14.858;2023-03-13T11:03:18;96424.91;;;11.55;68.95
71889;BME280;59762;49.998;14.858;2023-03-13T11:05:59;96415.03;;;11.55;68.81
71889;BME280;59762;49.998;14.858;2023-03-13T11:08:27;96393.41;;;11.50;69.17
71889;BME280;59762;49.998;14.858;2023-03-13T11:11:02;96403.44;;;11.63;68.63
71889;BME280;59762;49.998;14.858;2023-03-13T11:13:42;96412.81;;;11.59;67.75
71889;BME280;59762;49.998;14.858;2023-03-13T11:16:10;96410.59;;;11.77;68.21
71889;BME280;59762;49.998;14.858;2023-03-13T11:19:06;96418.59;;;11.98;67.13
71889;BME280;59762;49.998;14.858;2023-03-13T11:24:51;96407.63;;;11.72;68.08
71889;BME280;59762;49.998;14.858;2023-03-13T11:36:02;96401.16;;;12.02;66.84
71889;BME280;59762;49.998;14.858;2023-03-13T11:38:39;96389.78;;;12.14;67.10
71889;BME280;59762;49.998;14.858;2023-03-13T11:46:28;96391.88;;;12.74;64.96
71889;BME280;59762;49.998;14.858;2023-03-13T11:51:58;96379.56;;;12.79;65.38
71889;BME280;59762;49.998;14.858;2023-03-13T11:57:28;96379.16;;;13.16;64.69
71889;BME280;59762;49.998;14.858;2023-03-13T12:02:54;96371.50;;;13.13;64.34
71889;BME280;59762;49.998;14.858;2023-03-13T12:05:22;96363.53;;;13.33;64.89
71889;BME280;59762;49.998;14.858;2023-03-13T12:08:02;96358.88;;;13.48;64.90
71889;BME280;59762;49.998;14.858;2023-03-13T12:10:35;96367.31;;;13.45;64.48
71889;BME280;59762;49.998;14.858;2023-03-13T12:13:15;96363.94;;;13.23;65.00
71889;BME280;59762;49.998;14.858;2023-03-13T12:15:44;96365.84;;;13.42;64.55
71889;BME280;59762;49.998;14.858;2023-03-13T12:18:29;96358.00;;;13.41;65.18
71889;BME280;59762;49.998;14.858;2023-03-13T12:27:09;96377.59;;;13.35;65.46
71889;BME280;59762;49.998;14.858;2023-03-13T12:29:38;96376.59;;;13.02;67.24
71889;BME280;59762;49.998;14.858;2023-03-13T12:35:07;96378.19;;;13.30;66.40
71889;BME280;59762;49.998;14.858;2023-03-13T12:43:34;96377.94;;;13.79;65.27
71889;BME280;59762;49.998;14.858;2023-03-13T12:51:29;96365.94;;;13.75;66.55
71889;BME280;59762;49.998;14.858;2023-03-13T12:57:22;96339.13;;;13.81;66.40
71889;BME280;59762;49.998;14.858;2023-03-13T12:59:59;96346.81;;;13.91;66.96
71889;BME280;59762;49.998;14.858;2023-03-13T13:02:30;96348.25;;;13.93;65.74
71889;BME280;59762;49.998;14.858;2023-03-13T13:04:59;96346.81;;;14.17;65.74
71889;BME280;59762;49.998;14.858;2023-03-13T13:07:31;96346.59;;;13.92;65.86
71889;BME280;59762;49.998;14.858;2023-03-13T13:10:20;96341.38;;;13.65;67.88
71889;BME280;59762;49.998;14.858;2023-03-13T13:13:15;96327.38;;;13.89;66.59
71889;BME280;59762;49.998;14.858;2023-03-13T13:15:32;96336.88;;;14.04;65.90
71889;BME280;59762;49.998;14.858;2023-03-13T13:18:11;96327.44;;;14.21;65.08
71889;BME280;59762;49.998;14.858;2023-03-13T13:20:47;96331.94;;;14.08;66.03
71889;BME280;59762;49.998;14.858;2023-03-13T13:25:44;96344.75;;;14.12;65.74
71889;BME280;59762;49.998;14.858;2023-03-13T13:28:23;96334.66;;;14.34;65.24
71889;BME280;59762;49.998;14.858;2023-03-13T13:30:52;96335.03;;;14.05;65.43
71889;BME280;59762;49.998;14.858;2023-03-13T13:36:37;96338.34;;;13.81;65.34
71889;BME280;59762;49.998;14.858;2023-03-13T13:38:40;96337.09;;;13.96;65.50
71889;BME280;59762;49.998;14.858;2023-03-13T13:43:42;96330.91;;;14.09;65.73
71889;BME280;59762;49.998;14.858;2023-03-13T13:46:30;96331.72;;;13.83;65.94
71889;BME280;59762;49.998;14.858;2023-03-13T13:49:34;96338.69;;;13.65;66.99
71889;BME280;59762;49.998;14.858;2023-03-13T13:57:09;96329.69;;;13.19;67.86
71889;BME280;59762;49.998;14.858;2023-03-13T13:59:48;96332.16;;;13.20;67.81
71889;BME280;59762;49.998;14.858;2023-03-13T14:02:23;96344.28;;;13.10;68.21
71889;BME280;59762;49.998;14.858;2023-03-13T14:05:13;96343.28;;;13.17;67.95
71889;BME280;59762;49.998;14.858;2023-03-13T14:10:24;96347.44;;;12.86;69.88
71889;BME280;59762;49.998;14.858;2023-03-13T14:12:54;96345.13;;;12.76;69.62
71889;BME280;59762;49.998;14.858;2023-03-13T14:15:22;96340.59;;;12.77;70.20
71889;BME280;59762;49.998;14.858;2023-03-13T14:21:00;96345.66;;;12.65;70.72